This is the latest recevied weather packets stored in our database for station/object KQ4HEI. If no packets are shown the sender has not sent any weather packets the latest 10 day(s).
| Time | Temp. | Humidity | Pressure | Rain* | Wind** | Luminosity | Snow |
|---|---|---|---|---|---|---|---|
| 1788442293 | 26.11° C | 97% | 1014.8 hPa | 0 mm | - | - | - |
| 1788441692 | 26.11° C | 98% | 1014.9 hPa | 0 mm | - | - | - |
| 1788441093 | 25.56° C | 98% | 1014.9 hPa | 0 mm | - | - | - |
| 1788440493 | 25.56° C | 99% | 1014.8 hPa | 0 mm | - | - | - |
| 1788439293 | 25° C | 99% | 1014.4 hPa | 0 mm | - | - | - |
| 1788438692 | 25° C | 99% | 1014.5 hPa | 0 mm | - | - | - |
| 1788436293 | 22.78° C | 99% | 1014.1 hPa | 0 mm | - | - | - |
| 1788435692 | 22.78° C | 99% | 1013.9 hPa | 0 mm | - | - | - |
| 1788435092 | 22.78° C | 99% | 1013.9 hPa | 0 mm | - | - | - |
| 1788434492 | 22.22° C | 99% | 1013.9 hPa | 0 mm | - | - | - |
| 1788433895 | 22.22° C | 99% | 1013.9 hPa | 0 mm | - | - | - |
| 1788433293 | 22.22° C | 99% | 1013.9 hPa | 0 mm | - | - | - |
| 1788432694 | 22.22° C | 99% | 1013.9 hPa | 0 mm | - | - | - |
| 1788432092 | 22.22° C | 99% | 1013.9 hPa | 0 mm | - | - | - |
| 1788431494 | 22.22° C | 99% | 1013.7 hPa | 0 mm | - | - | - |
| 1788430892 | 22.22° C | 99% | 1013.6 hPa | 0 mm | - | - | - |
| 1788430293 | 22.22° C | 99% | 1013.4 hPa | 0 mm | - | - | - |
| 1788429692 | 22.22° C | 99% | 1013.4 hPa | 0 mm | - | - | - |
| 1788429092 | 22.78° C | 99% | 1013.4 hPa | 0 mm | - | - | - |
| 1788428492 | 22.78° C | 99% | 1013.4 hPa | 0 mm | - | - | - |
| 1788427892 | 22.78° C | 99% | 1013.4 hPa | 0 mm | - | - | - |
| 1788427293 | 22.78° C | 99% | 1013.5 hPa | 0 mm | - | - | - |
| 1788426692 | 22.78° C | 99% | 1013.5 hPa | 0 mm | - | - | - |
| 1788424292 | 22.78° C | 99% | 1013.5 hPa | 0 mm | - | - | - |
| 1788423692 | 23.33° C | 99% | 1013.4 hPa | 0 mm | - | - | - |
* Rain latest hour (hover to see other rain measurements)
** Current wind speed in m/s (hover to see current wind gust speed)